createdAt,value
2019-03-29T00:00:02.684Z,32.97
2019-03-29T00:02:37.938Z,34.00
2019-03-29T00:05:11.544Z,34.73
2019-03-29T00:07:45.294Z,30.27
2019-03-29T00:10:18.816Z,30.73
2019-03-29T00:12:53.408Z,33.77
2019-03-29T00:15:26.996Z,33.33
2019-03-29T00:18:00.598Z,32.70
2019-03-29T00:20:34.044Z,33.30
2019-03-29T00:23:07.913Z,32.77
2019-03-29T00:25:41.318Z,35.77
2019-03-29T00:28:14.753Z,30.93
2019-03-29T00:30:48.358Z,35.33
2019-03-29T00:33:21.764Z,34.77
2019-03-29T00:35:55.442Z,34.63
2019-03-29T00:38:28.999Z,33.70
2019-03-29T00:41:02.478Z,35.10
2019-03-29T00:43:36.065Z,36.33
2019-03-29T00:46:09.725Z,36.90
2019-03-29T00:48:43.179Z,38.13
2019-03-29T00:51:16.729Z,40.27
2019-03-29T00:53:50.205Z,40.63
2019-03-29T00:56:23.705Z,42.17
2019-03-29T00:58:57.058Z,40.40
2019-03-29T01:01:30.508Z,39.27
2019-03-29T01:04:03.820Z,39.90
2019-03-29T01:06:37.204Z,41.37
2019-03-29T01:09:10.740Z,41.07
2019-03-29T01:11:44.321Z,42.77
2019-03-29T01:14:18.011Z,40.03
2019-03-29T01:16:53.250Z,40.27
2019-03-29T01:19:27.474Z,41.00
2019-03-29T01:22:00.975Z,39.93
2019-03-29T01:24:34.289Z,39.77
2019-03-29T01:27:07.870Z,39.17
2019-03-29T01:29:44.459Z,41.63
2019-03-29T01:32:17.944Z,40.17
2019-03-29T01:34:51.863Z,40.60
2019-03-29T01:37:25.282Z,41.50
2019-03-29T01:39:58.649Z,39.93
2019-03-29T01:42:32.100Z,42.17
2019-03-29T01:45:06.478Z,40.60
2019-03-29T01:47:40.321Z,41.17
2019-03-29T01:50:13.816Z,41.27
2019-03-29T01:52:47.444Z,42.17
2019-03-29T01:55:20.798Z,40.47
2019-03-29T01:57:54.306Z,40.50
2019-03-29T02:00:32.217Z,39.00
2019-03-29T02:03:05.756Z,38.60
2019-03-29T02:05:39.226Z,38.50
2019-03-29T02:08:35.934Z,37.23
2019-03-29T02:11:07.340Z,37.77
2019-03-29T02:13:40.766Z,39.30
2019-03-29T02:16:14.212Z,34.03
2019-03-29T02:18:47.629Z,36.13
2019-03-29T02:21:21.041Z,38.37
2019-03-29T02:23:54.767Z,38.87
2019-03-29T02:26:28.229Z,40.90
2019-03-29T02:29:01.746Z,38.93
2019-03-29T02:31:35.584Z,36.57
2019-03-29T02:34:10.027Z,37.40
2019-03-29T02:36:43.576Z,36.03
2019-03-29T02:39:17.063Z,35.17
2019-03-29T02:41:50.922Z,36.63
2019-03-29T02:44:24.386Z,37.13
2019-03-29T02:46:57.743Z,38.27
2019-03-29T02:49:31.335Z,37.07
2019-03-29T02:52:05.796Z,36.17
2019-03-29T02:54:39.378Z,32.47
2019-03-29T02:57:12.742Z,32.47
2019-03-29T02:59:46.335Z,38.90
2019-03-29T03:02:19.756Z,37.00
2019-03-29T03:04:53.152Z,34.57
2019-03-29T03:07:26.610Z,33.80
2019-03-29T03:10:00.580Z,32.10
2019-03-29T03:12:34.314Z,31.87
2019-03-29T03:15:10.129Z,33.17
2019-03-29T03:17:44.552Z,35.17
2019-03-29T03:20:18.259Z,37.13
2019-03-29T03:22:51.965Z,37.50
2019-03-29T03:25:25.611Z,38.57
2019-03-29T03:27:59.099Z,38.17
2019-03-29T03:30:32.902Z,39.40
2019-03-29T03:33:06.423Z,40.27
2019-03-29T03:35:39.946Z,40.33
2019-03-29T03:38:13.458Z,40.03
2019-03-29T03:40:47.260Z,39.73
2019-03-29T03:43:20.774Z,38.80
2019-03-29T03:45:54.602Z,37.33
2019-03-29T03:48:28.109Z,37.47
2019-03-29T03:51:01.614Z,36.87
2019-03-29T03:53:34.954Z,35.67
2019-03-29T03:56:09.157Z,36.37
2019-03-29T03:58:43.760Z,37.77
2019-03-29T04:01:17.217Z,36.53
2019-03-29T04:03:50.763Z,35.37
2019-03-29T04:06:24.434Z,33.60
2019-03-29T04:08:57.963Z,34.17
2019-03-29T04:11:31.555Z,36.03
2019-03-29T04:14:05.095Z,36.90
2019-03-29T04:16:38.837Z,34.73
2019-03-29T04:19:12.369Z,34.27
2019-03-29T04:21:46.077Z,37.43
2019-03-29T04:24:19.607Z,36.93
2019-03-29T04:26:53.727Z,37.23
2019-03-29T04:29:27.272Z,37.23
2019-03-29T04:32:00.644Z,37.73
2019-03-29T04:34:34.169Z,37.77
2019-03-29T04:37:07.719Z,38.43
2019-03-29T04:39:41.283Z,37.97
2019-03-29T04:42:14.853Z,37.17
2019-03-29T04:44:48.370Z,38.17
2019-03-29T04:47:21.953Z,36.63
2019-03-29T04:49:55.599Z,36.57
2019-03-29T04:52:29.204Z,37.13
2019-03-29T04:55:02.856Z,37.47
2019-03-29T04:57:36.418Z,37.23
2019-03-29T05:00:09.932Z,36.37
2019-03-29T05:02:43.360Z,33.53
2019-03-29T05:05:16.919Z,34.13
2019-03-29T05:07:50.288Z,35.77
2019-03-29T05:10:24.040Z,33.57
2019-03-29T05:12:59.584Z,33.40
2019-03-29T05:15:33.239Z,33.93
2019-03-29T05:18:06.681Z,35.87
2019-03-29T05:20:41.337Z,36.63
2019-03-29T05:23:14.982Z,35.07
2019-03-29T05:25:48.708Z,35.77
2019-03-29T05:28:22.122Z,36.03
2019-03-29T05:30:56.090Z,41.00
2019-03-29T05:33:29.530Z,40.67
2019-03-29T05:36:03.018Z,36.03
2019-03-29T05:38:36.647Z,34.50
2019-03-29T05:41:10.284Z,36.73
2019-03-29T05:43:43.727Z,36.30
2019-03-29T05:46:17.388Z,34.83
2019-03-29T05:48:50.851Z,34.83
2019-03-29T05:51:24.940Z,33.97
2019-03-29T05:53:58.409Z,34.27
2019-03-29T05:56:32.143Z,34.13
2019-03-29T05:59:05.582Z,31.67
2019-03-29T06:01:39.254Z,32.57
2019-03-29T06:04:12.964Z,30.87
2019-03-29T06:06:46.410Z,32.17
2019-03-29T06:09:19.992Z,31.00
2019-03-29T06:11:53.604Z,31.80
2019-03-29T06:14:27.160Z,30.27
2019-03-29T06:17:00.759Z,29.40
2019-03-29T06:19:34.297Z,32.50
2019-03-29T06:22:08.148Z,30.37
2019-03-29T06:24:41.685Z,30.60
2019-03-29T06:27:15.243Z,30.83
2019-03-29T06:29:48.826Z,29.90
2019-03-29T06:32:22.493Z,28.93
2019-03-29T06:34:55.914Z,29.13
2019-03-29T06:37:30.026Z,28.57
2019-03-29T06:40:04.510Z,27.77
2019-03-29T06:42:38.010Z,27.13
2019-03-29T06:45:11.461Z,27.27
2019-03-29T06:47:45.034Z,25.97
2019-03-29T06:50:18.479Z,26.87
2019-03-29T06:52:52.036Z,26.53
2019-03-29T06:55:25.596Z,27.20
2019-03-29T06:57:58.994Z,25.90
2019-03-29T07:00:32.775Z,24.10
2019-03-29T07:03:06.131Z,21.63
2019-03-29T07:05:39.874Z,20.73
2019-03-29T07:08:13.419Z,22.07
2019-03-29T07:10:46.979Z,22.17
2019-03-29T07:13:20.598Z,21.60
2019-03-29T07:15:54.390Z,20.80
2019-03-29T07:18:27.852Z,19.33
2019-03-29T07:21:01.639Z,18.60
2019-03-29T07:23:35.175Z,16.80
2019-03-29T07:26:08.665Z,14.43
2019-03-29T07:28:42.099Z,14.53
2019-03-29T07:31:15.703Z,13.00
2019-03-29T07:33:49.270Z,13.50
2019-03-29T07:36:22.849Z,12.40
2019-03-29T07:38:56.438Z,13.00
2019-03-29T07:41:32.034Z,12.97
2019-03-29T07:44:05.871Z,12.15
2019-03-29T07:46:39.857Z,11.90
2019-03-29T07:49:13.210Z,12.20
2019-03-29T07:51:46.826Z,11.48
2019-03-29T07:54:20.566Z,11.18
2019-03-29T07:56:53.981Z,10.65
2019-03-29T07:59:27.472Z,11.12
2019-03-29T08:02:02.370Z,10.03
2019-03-29T08:04:36.695Z,9.95
2019-03-29T08:07:11.016Z,10.43
2019-03-29T08:09:44.555Z,9.90
2019-03-29T08:12:17.937Z,10.65
2019-03-29T08:14:52.036Z,10.98
2019-03-29T08:17:25.950Z,11.45
2019-03-29T08:20:30.250Z,11.75
2019-03-29T08:22:34.997Z,12.65
2019-03-29T08:25:08.587Z,12.98
2019-03-29T08:27:42.190Z,12.10
2019-03-29T08:30:16.820Z,12.80
2019-03-29T08:32:50.355Z,12.95
2019-03-29T08:35:24.010Z,13.00
2019-03-29T08:37:57.532Z,11.80
2019-03-29T08:40:31.150Z,13.95
2019-03-29T08:43:04.760Z,13.90
2019-03-29T08:45:38.195Z,14.20
2019-03-29T08:48:11.863Z,14.73
2019-03-29T08:50:45.595Z,13.90
2019-03-29T08:53:19.172Z,14.10
2019-03-29T08:55:52.611Z,14.60
2019-03-29T08:58:26.055Z,13.20
2019-03-29T09:00:59.963Z,13.55
2019-03-29T09:03:33.673Z,13.72
2019-03-29T09:06:08.110Z,13.18
2019-03-29T09:08:42.195Z,12.05
2019-03-29T09:11:15.881Z,13.45
2019-03-29T09:13:49.441Z,14.53
2019-03-29T09:16:22.841Z,13.50
2019-03-29T09:18:56.532Z,13.32
2019-03-29T09:21:30.009Z,12.47
2019-03-29T09:24:03.739Z,12.70
2019-03-29T09:26:38.633Z,12.45
2019-03-29T09:29:12.080Z,12.10
2019-03-29T09:31:45.737Z,11.08
2019-03-29T09:34:19.291Z,11.45
2019-03-29T09:36:52.963Z,12.50
2019-03-29T09:39:26.545Z,10.53
2019-03-29T09:42:00.192Z,11.65
2019-03-29T09:44:33.726Z,9.43
2019-03-29T09:47:07.348Z,9.85
2019-03-29T09:49:40.813Z,10.93
2019-03-29T09:52:14.706Z,9.90
2019-03-29T09:54:48.261Z,8.03
2019-03-29T09:57:36.164Z,8.65
2019-03-29T09:59:57.251Z,7.67
2019-03-29T10:02:30.998Z,9.50
2019-03-29T10:05:04.478Z,8.48
2019-03-29T10:07:38.247Z,7.62
2019-03-29T10:10:12.819Z,7.95
2019-03-29T10:12:46.523Z,7.95
2019-03-29T10:15:20.032Z,6.53
2019-03-29T10:17:53.688Z,5.92
2019-03-29T10:20:27.224Z,7.58
2019-03-29T10:23:00.870Z,6.22
2019-03-29T10:25:34.496Z,7.35
2019-03-29T10:28:08.031Z,7.28
2019-03-29T10:30:46.199Z,6.30
2019-03-29T10:33:18.183Z,6.05
2019-03-29T10:36:02.551Z,6.15
2019-03-29T10:38:36.364Z,6.20
2019-03-29T10:41:10.244Z,6.62
2019-03-29T10:43:43.765Z,6.37
2019-03-29T10:46:17.374Z,6.42
2019-03-29T10:48:50.943Z,6.85
2019-03-29T10:51:24.476Z,6.12
2019-03-29T10:53:58.029Z,5.70
2019-03-29T10:56:34.307Z,5.30
2019-03-29T10:59:07.450Z,5.33
2019-03-29T11:01:41.002Z,5.45
2019-03-29T11:04:14.513Z,5.30
2019-03-29T11:06:48.182Z,5.42
2019-03-29T11:09:21.823Z,4.90
2019-03-29T11:11:55.515Z,5.40
2019-03-29T11:14:31.074Z,5.10
2019-03-29T11:17:05.524Z,5.67
2019-03-29T11:19:39.644Z,5.15
2019-03-29T11:22:13.404Z,5.72
2019-03-29T11:24:46.937Z,5.35
2019-03-29T11:27:22.497Z,4.70
2019-03-29T11:29:56.060Z,5.80
2019-03-29T11:32:30.563Z,5.87
2019-03-29T11:35:04.424Z,4.97
2019-03-29T11:37:37.984Z,5.03
2019-03-29T11:40:11.909Z,5.62
2019-03-29T11:42:45.519Z,4.85
2019-03-29T11:45:19.056Z,6.33
2019-03-29T11:48:06.875Z,4.95
2019-03-29T11:50:29.290Z,4.72
2019-03-29T11:53:03.243Z,4.80
2019-03-29T11:55:36.715Z,4.25
2019-03-29T11:58:10.528Z,4.90
2019-03-29T12:00:44.274Z,4.55
2019-03-29T12:03:17.776Z,5.22
2019-03-29T12:05:51.389Z,4.40
2019-03-29T12:08:25.072Z,4.58
2019-03-29T12:10:58.817Z,4.65
2019-03-29T12:13:40.942Z,4.95
2019-03-29T12:16:08.035Z,4.45
2019-03-29T12:18:41.574Z,5.70
2019-03-29T12:21:15.049Z,4.37
2019-03-29T12:23:48.582Z,4.45
2019-03-29T12:26:22.274Z,4.92
2019-03-29T12:28:55.706Z,4.12
2019-03-29T12:31:29.191Z,4.30
2019-03-29T12:34:03.008Z,4.92
2019-03-29T12:36:36.731Z,4.17
2019-03-29T12:39:10.480Z,4.08
2019-03-29T12:41:44.351Z,4.53
2019-03-29T12:44:18.157Z,5.20
2019-03-29T12:46:52.026Z,4.53
2019-03-29T12:49:25.994Z,4.72
2019-03-29T12:51:59.803Z,4.95
2019-03-29T12:54:33.609Z,4.55
2019-03-29T12:57:07.276Z,4.40
2019-03-29T12:59:41.060Z,4.58
2019-03-29T13:02:17.287Z,5.10
2019-03-29T13:04:51.160Z,4.55
2019-03-29T13:07:24.795Z,7.20
2019-03-29T13:09:58.546Z,5.03
2019-03-29T13:12:32.135Z,5.20
2019-03-29T13:15:05.928Z,5.00
2019-03-29T13:17:39.555Z,5.15
2019-03-29T13:20:13.149Z,5.12
2019-03-29T13:22:46.707Z,4.85
2019-03-29T13:25:23.460Z,4.47
2019-03-29T13:27:59.354Z,5.35
2019-03-29T13:30:33.433Z,5.28
2019-03-29T13:33:07.226Z,5.10
2019-03-29T13:35:40.903Z,5.50
2019-03-29T13:38:16.339Z,4.90
2019-03-29T13:40:50.116Z,5.72
2019-03-29T13:43:46.275Z,4.90
2019-03-29T13:46:23.435Z,3.77
2019-03-29T13:48:58.559Z,4.50
2019-03-29T13:51:35.531Z,4.28
2019-03-29T13:54:09.320Z,4.12
2019-03-29T13:56:43.075Z,4.30
2019-03-29T13:59:16.457Z,4.22
2019-03-29T14:01:50.260Z,4.62
2019-03-29T14:04:23.918Z,4.78
2019-03-29T14:06:57.319Z,4.35
2019-03-29T14:09:30.881Z,4.10
2019-03-29T14:12:04.444Z,4.28
2019-03-29T14:14:38.885Z,4.35
2019-03-29T14:17:12.468Z,4.37
2019-03-29T14:19:45.989Z,4.22
2019-03-29T14:22:19.700Z,3.60
2019-03-29T14:24:54.232Z,3.60
2019-03-29T14:27:28.242Z,3.98
2019-03-29T14:30:04.616Z,3.95
2019-03-29T14:32:37.325Z,4.00
2019-03-29T14:35:10.917Z,3.37
2019-03-29T14:37:44.630Z,3.40
2019-03-29T14:40:18.199Z,2.85
2019-03-29T14:42:51.695Z,4.05
2019-03-29T14:45:25.177Z,3.70
2019-03-29T14:47:58.591Z,3.33
2019-03-29T14:50:32.186Z,3.30
2019-03-29T14:53:05.626Z,3.10
2019-03-29T14:55:39.212Z,3.30
2019-03-29T14:58:12.780Z,2.58
2019-03-29T15:00:48.606Z,3.40
2019-03-29T15:03:21.833Z,2.90
2019-03-29T15:05:55.442Z,2.83
2019-03-29T15:08:28.876Z,2.62
2019-03-29T15:11:02.396Z,2.37
2019-03-29T15:13:35.890Z,2.77
2019-03-29T15:16:09.547Z,2.30
2019-03-29T15:18:43.271Z,2.22
2019-03-29T15:21:16.812Z,2.45
2019-03-29T15:23:50.424Z,2.00
2019-03-29T15:26:23.942Z,2.58
2019-03-29T15:28:57.707Z,2.58
2019-03-29T15:31:31.257Z,2.52
2019-03-29T15:34:04.777Z,2.83
2019-03-29T15:36:38.407Z,1.80
2019-03-29T15:39:11.907Z,2.10
2019-03-29T15:41:45.541Z,2.08
2019-03-29T15:44:19.003Z,1.92
2019-03-29T15:46:52.952Z,1.60
2019-03-29T15:49:26.473Z,2.42
2019-03-29T15:51:59.994Z,1.85
2019-03-29T15:54:33.798Z,1.90
2019-03-29T15:57:07.388Z,2.10
2019-03-29T15:59:40.880Z,1.80
2019-03-29T16:02:14.353Z,2.15
2019-03-29T16:04:47.830Z,2.10
2019-03-29T16:07:21.955Z,1.62
2019-03-29T16:09:55.503Z,1.75
2019-03-29T16:12:28.937Z,2.05
2019-03-29T16:15:03.219Z,2.00
2019-03-29T16:17:37.152Z,1.90
2019-03-29T16:20:10.657Z,2.20
2019-03-29T16:22:44.303Z,2.17
2019-03-29T16:25:17.977Z,1.50
2019-03-29T16:27:51.607Z,1.85
2019-03-29T16:30:25.254Z,2.45
2019-03-29T16:32:58.683Z,2.15
2019-03-29T16:35:32.204Z,2.42
2019-03-29T16:38:05.883Z,2.08
2019-03-29T16:40:39.423Z,2.75
2019-03-29T16:43:13.205Z,2.75
2019-03-29T16:45:48.198Z,2.87
2019-03-29T16:48:22.477Z,1.60
2019-03-29T16:50:55.989Z,2.00
2019-03-29T16:53:29.626Z,2.25
2019-03-29T16:56:03.763Z,2.33
2019-03-29T16:58:37.314Z,2.12
2019-03-29T17:01:10.849Z,2.30
2019-03-29T17:03:44.492Z,1.80
2019-03-29T17:06:17.949Z,1.85
2019-03-29T17:08:51.824Z,1.72
2019-03-29T17:11:25.375Z,2.20
2019-03-29T17:13:59.118Z,1.92
2019-03-29T17:16:32.658Z,13.62
2019-03-29T17:19:06.263Z,1.87
2019-03-29T17:21:39.783Z,2.30
2019-03-29T17:24:13.652Z,1.85
2019-03-29T17:26:47.425Z,2.08
2019-03-29T17:29:21.092Z,1.90
2019-03-29T17:31:55.664Z,1.70
2019-03-29T17:34:29.924Z,2.10
2019-03-29T17:37:03.418Z,1.90
2019-03-29T17:39:37.387Z,2.00
2019-03-29T17:42:11.170Z,2.00
2019-03-29T17:44:44.729Z,2.05
2019-03-29T17:47:18.241Z,2.10
2019-03-29T17:49:51.687Z,2.12
2019-03-29T17:52:25.449Z,2.35
2019-03-29T17:54:58.953Z,2.30
2019-03-29T17:57:32.633Z,2.00
2019-03-29T18:00:07.245Z,2.37
2019-03-29T18:02:40.983Z,2.02
2019-03-29T18:05:14.540Z,1.92
2019-03-29T18:07:48.206Z,6.30
2019-03-29T18:10:21.755Z,4.85
2019-03-29T18:12:55.513Z,3.37
2019-03-29T18:15:28.951Z,2.00
2019-03-29T18:18:02.441Z,2.10
2019-03-29T18:20:36.053Z,2.37
2019-03-29T18:23:09.790Z,2.20
2019-03-29T18:25:43.324Z,2.47
2019-03-29T18:28:16.740Z,2.60
2019-03-29T18:30:50.298Z,2.27
2019-03-29T18:33:27.683Z,2.37
2019-03-29T18:36:13.462Z,2.50
2019-03-29T18:38:47.888Z,3.35
2019-03-29T18:41:21.299Z,4.03
2019-03-29T18:43:54.813Z,4.45
2019-03-29T18:46:28.376Z,3.75
2019-03-29T18:49:02.798Z,3.52
2019-03-29T18:51:36.373Z,4.53
2019-03-29T18:54:09.764Z,8.45
2019-03-29T18:56:43.249Z,20.90
2019-03-29T18:59:17.072Z,16.35
2019-03-29T19:01:50.631Z,27.87
2019-03-29T19:04:24.134Z,12.95
2019-03-29T19:06:57.771Z,10.63
2019-03-29T19:09:31.760Z,6.87
2019-03-29T19:12:05.394Z,5.78
2019-03-29T19:14:41.576Z,4.62
2019-03-29T19:17:15.461Z,5.62
2019-03-29T19:19:49.159Z,4.95
2019-03-29T19:22:22.792Z,4.58
2019-03-29T19:24:56.510Z,4.22
2019-03-29T19:27:30.001Z,4.17
2019-03-29T19:30:04.006Z,4.03
2019-03-29T19:32:38.539Z,3.72
2019-03-29T19:35:12.379Z,3.55
2019-03-29T19:37:45.805Z,3.72
2019-03-29T19:40:19.431Z,3.50
2019-03-29T19:42:52.946Z,3.55
2019-03-29T19:45:26.490Z,3.70
2019-03-29T19:48:00.349Z,4.12
2019-03-29T19:50:34.007Z,3.72
2019-03-29T19:53:08.175Z,4.00
2019-03-29T19:55:41.706Z,4.60
2019-03-29T19:58:15.360Z,4.47
2019-03-29T20:00:48.893Z,4.25
2019-03-29T20:03:22.388Z,3.58
2019-03-29T20:05:55.866Z,4.10
2019-03-29T20:08:29.651Z,3.58
2019-03-29T20:11:03.303Z,3.58
2019-03-29T20:13:36.791Z,5.37
2019-03-29T20:16:10.479Z,9.13
2019-03-29T20:18:44.124Z,10.93
2019-03-29T20:21:17.740Z,6.12
2019-03-29T20:23:51.180Z,4.58
2019-03-29T20:26:24.881Z,4.30
2019-03-29T20:28:58.676Z,7.75
2019-03-29T20:31:32.176Z,6.37
2019-03-29T20:34:05.635Z,8.88
2019-03-29T20:36:39.210Z,9.18
2019-03-29T20:39:13.018Z,8.13
2019-03-29T20:41:46.565Z,10.60
2019-03-29T20:44:20.097Z,7.00
2019-03-29T20:46:53.776Z,5.03
2019-03-29T20:49:27.404Z,3.95
2019-03-29T20:52:00.916Z,5.28
2019-03-29T20:54:34.813Z,5.70
2019-03-29T20:57:08.328Z,4.42
2019-03-29T20:59:41.941Z,4.37
2019-03-29T21:02:15.401Z,4.58
2019-03-29T21:04:49.002Z,4.10
2019-03-29T21:07:22.468Z,4.30
2019-03-29T21:09:55.926Z,4.50
2019-03-29T21:12:29.807Z,3.92
2019-03-29T21:15:05.459Z,3.90
2019-03-29T21:17:38.985Z,4.35
2019-03-29T21:20:13.617Z,4.50
2019-03-29T21:22:47.202Z,4.80
2019-03-29T21:25:20.932Z,4.75
2019-03-29T21:27:54.465Z,5.05
2019-03-29T21:30:27.904Z,4.58
2019-03-29T21:33:01.732Z,5.62
2019-03-29T21:35:35.323Z,4.70
2019-03-29T21:38:08.768Z,4.85
2019-03-29T21:40:42.309Z,4.45
2019-03-29T21:43:15.906Z,4.72
2019-03-29T21:45:49.597Z,4.83
2019-03-29T21:48:29.056Z,4.87
2019-03-29T21:50:59.406Z,4.47
2019-03-29T21:53:32.960Z,4.30
2019-03-29T21:56:06.478Z,4.53
2019-03-29T21:58:40.131Z,4.28
2019-03-29T22:01:13.583Z,4.58
2019-03-29T22:03:47.513Z,4.60
2019-03-29T22:06:21.038Z,4.47
2019-03-29T22:08:54.561Z,4.80
2019-03-29T22:11:28.028Z,5.10
2019-03-29T22:14:01.467Z,5.47
2019-03-29T22:16:34.863Z,5.80
2019-03-29T22:19:08.268Z,5.70
2019-03-29T22:21:41.806Z,5.60
2019-03-29T22:24:15.228Z,5.50
2019-03-29T22:26:48.682Z,6.22
2019-03-29T22:29:22.147Z,5.67
2019-03-29T22:31:56.094Z,6.03
2019-03-29T22:34:29.527Z,5.83
2019-03-29T22:37:03.044Z,6.67
2019-03-29T22:39:36.967Z,6.42
2019-03-29T22:42:10.391Z,5.90
2019-03-29T22:44:44.118Z,6.20
2019-03-29T22:47:17.711Z,6.12
2019-03-29T22:49:51.742Z,6.25
2019-03-29T22:52:25.270Z,6.75
2019-03-29T22:54:58.689Z,6.10
2019-03-29T22:57:32.083Z,5.97
2019-03-29T23:00:14.384Z,6.67
2019-03-29T23:02:48.680Z,6.60
2019-03-29T23:05:22.149Z,7.33
2019-03-29T23:07:55.798Z,7.12
2019-03-29T23:10:29.296Z,7.43
2019-03-29T23:13:03.202Z,7.25
2019-03-29T23:15:36.689Z,8.03
2019-03-29T23:18:10.307Z,6.95
2019-03-29T23:20:43.689Z,6.87
2019-03-29T23:23:17.494Z,6.90
2019-03-29T23:25:51.076Z,5.23
2019-03-29T23:28:24.650Z,6.23
2019-03-29T23:30:58.191Z,5.80
2019-03-29T23:33:31.900Z,5.37
2019-03-29T23:36:05.307Z,5.47
2019-03-29T23:38:39.196Z,5.40
2019-03-29T23:41:12.669Z,6.33
2019-03-29T23:43:46.316Z,5.40
2019-03-29T23:46:19.791Z,5.33
2019-03-29T23:48:53.572Z,5.37
2019-03-29T23:51:27.099Z,5.47
2019-03-29T23:54:00.695Z,5.40
2019-03-29T23:56:34.354Z,5.90
2019-03-29T23:59:08.055Z,5.47
